createdAt,value
2023-04-14T00:01:53.731Z,10.17
2023-04-14T00:04:20.904Z,9.83
2023-04-14T00:06:47.970Z,11.30
2023-04-14T00:09:15.446Z,10.50
2023-04-14T00:11:42.369Z,9.87
2023-04-14T00:14:09.536Z,8.93
2023-04-14T00:16:36.963Z,8.93
2023-04-14T00:19:04.038Z,9.23
2023-04-14T00:21:31.674Z,9.57
2023-04-14T00:23:58.601Z,9.50
2023-04-14T00:26:25.602Z,7.97
2023-04-14T00:28:52.583Z,8.63
2023-04-14T00:31:19.411Z,9.27
2023-04-14T00:33:46.253Z,9.27
2023-04-14T00:36:13.263Z,9.30
2023-04-14T00:38:40.350Z,9.33
2023-04-14T00:41:07.346Z,8.67
2023-04-14T00:43:34.154Z,9.13
2023-04-14T00:46:01.710Z,8.47
2023-04-14T00:48:29.597Z,8.70
2023-04-14T00:50:56.495Z,8.60
2023-04-14T00:53:23.960Z,7.87
2023-04-14T00:55:51.328Z,7.37
2023-04-14T00:58:18.251Z,6.40
2023-04-14T01:00:46.258Z,6.80
2023-04-14T01:03:13.678Z,5.87
2023-04-14T01:05:41.048Z,6.20
2023-04-14T01:08:07.960Z,5.57
2023-04-14T01:10:55.972Z,5.40
2023-04-14T01:13:36.962Z,5.70
2023-04-14T01:16:16.914Z,4.77
2023-04-14T01:18:46.528Z,5.83
2023-04-14T01:21:20.302Z,5.37
2023-04-14T01:24:21.837Z,5.13
2023-04-14T01:27:02.120Z,5.83
2023-04-14T01:29:56.328Z,5.63
2023-04-14T01:32:25.758Z,5.53
2023-04-14T01:35:20.196Z,5.30
2023-04-14T01:37:59.048Z,5.30
2023-04-14T01:40:27.965Z,5.30
2023-04-14T01:43:02.947Z,6.50
2023-04-14T01:45:39.081Z,7.87
2023-04-14T01:48:07.880Z,8.03
2023-04-14T01:50:37.374Z,7.83
2023-04-14T01:53:07.240Z,7.87
2023-04-14T01:55:37.533Z,7.97
2023-04-14T01:58:06.819Z,8.00
2023-04-14T02:00:36.604Z,8.23
2023-04-14T02:03:05.927Z,7.77
2023-04-14T02:05:37.031Z,7.77
2023-04-14T02:08:06.370Z,8.67
2023-04-14T02:10:34.139Z,9.03
2023-04-14T02:13:03.177Z,8.67
2023-04-14T02:15:31.996Z,7.33
2023-04-14T02:18:00.456Z,7.13
2023-04-14T02:20:29.409Z,7.30
2023-04-14T02:22:56.441Z,7.50
2023-04-14T02:25:25.763Z,8.63
2023-04-14T02:28:00.485Z,8.43
2023-04-14T02:30:38.207Z,8.03
2023-04-14T02:33:09.645Z,8.00
2023-04-14T02:35:46.216Z,8.67
2023-04-14T02:38:21.681Z,8.33
2023-04-14T02:40:49.141Z,8.60
2023-04-14T02:43:24.924Z,8.67
2023-04-14T02:45:54.011Z,8.80
2023-04-14T02:48:27.113Z,8.03
2023-04-14T02:50:55.656Z,8.40
2023-04-14T02:53:25.044Z,8.80
2023-04-14T02:55:53.462Z,7.87
2023-04-14T02:58:21.086Z,8.50
2023-04-14T03:00:50.001Z,8.10
2023-04-14T03:03:18.864Z,8.37
2023-04-14T03:05:47.704Z,8.67
2023-04-14T03:08:16.682Z,8.87
2023-04-14T03:10:47.051Z,8.60
2023-04-14T03:13:15.530Z,9.00
2023-04-14T03:15:43.371Z,8.77
2023-04-14T03:18:12.467Z,8.07
2023-04-14T03:20:41.599Z,7.93
2023-04-14T03:23:12.562Z,8.17
2023-04-14T03:25:40.690Z,8.13
2023-04-14T03:28:13.745Z,9.17
2023-04-14T03:30:44.020Z,8.87
2023-04-14T03:33:14.491Z,8.40
2023-04-14T03:35:42.586Z,8.57
2023-04-14T03:38:11.129Z,8.93
2023-04-14T03:40:42.890Z,8.50
2023-04-14T03:43:12.373Z,8.00
2023-04-14T03:45:40.540Z,8.57
2023-04-14T03:48:12.626Z,8.47
2023-04-14T03:50:42.834Z,8.67
2023-04-14T03:53:12.707Z,7.90
2023-04-14T03:55:42.227Z,7.93
2023-04-14T03:58:11.082Z,8.70
2023-04-14T04:00:38.957Z,9.50
2023-04-14T04:03:09.044Z,8.73
2023-04-14T04:05:40.714Z,8.83
2023-04-14T04:08:08.771Z,8.60
2023-04-14T04:10:36.555Z,8.53
2023-04-14T04:13:06.950Z,8.90
2023-04-14T04:15:34.272Z,8.87
2023-04-14T04:18:03.372Z,9.07
2023-04-14T04:20:32.944Z,8.60
2023-04-14T04:23:02.787Z,8.30
2023-04-14T04:25:32.275Z,8.70
2023-04-14T04:28:01.249Z,9.10
2023-04-14T04:30:29.604Z,9.23
2023-04-14T04:32:56.817Z,9.07
2023-04-14T04:35:24.996Z,8.87
2023-04-14T04:37:53.537Z,8.93
2023-04-14T04:40:20.576Z,8.83
2023-04-14T04:42:47.334Z,8.30
2023-04-14T04:45:30.956Z,8.27
2023-04-14T04:47:57.795Z,8.83
2023-04-14T04:50:24.565Z,8.73
2023-04-14T04:52:51.520Z,8.47
2023-04-14T04:55:18.239Z,8.07
2023-04-14T04:57:44.965Z,8.70
2023-04-14T05:00:12.346Z,8.53
2023-04-14T05:02:39.327Z,8.37
2023-04-14T05:05:08.689Z,8.43
2023-04-14T05:07:35.974Z,9.57
2023-04-14T05:10:04.081Z,8.60
2023-04-14T05:12:30.830Z,8.33
2023-04-14T05:14:57.828Z,8.70
2023-04-14T05:17:25.022Z,8.20
2023-04-14T05:19:51.847Z,7.70
2023-04-14T05:22:18.814Z,7.93
2023-04-14T05:24:52.000Z,7.10
2023-04-14T05:27:18.804Z,6.80
2023-04-14T05:29:45.836Z,6.50
2023-04-14T05:32:14.592Z,6.63
2023-04-14T05:34:41.994Z,7.20
2023-04-14T05:37:09.006Z,6.67
2023-04-14T05:39:35.965Z,7.20
2023-04-14T05:42:03.199Z,7.07
2023-04-14T05:44:33.164Z,6.33
2023-04-14T05:47:00.412Z,6.47
2023-04-14T05:49:27.405Z,5.80
2023-04-14T05:51:57.782Z,6.17
2023-04-14T05:54:24.529Z,5.43
2023-04-14T05:56:51.375Z,5.93
2023-04-14T05:59:18.378Z,5.80
2023-04-14T06:01:48.359Z,5.33
2023-04-14T06:04:15.801Z,4.97
2023-04-14T06:06:42.814Z,5.10
2023-04-14T06:09:09.753Z,4.40
2023-04-14T06:11:37.915Z,4.93
2023-04-14T06:14:07.867Z,4.95
2023-04-14T06:16:34.738Z,5.40
2023-04-14T06:19:01.993Z,4.55
2023-04-14T06:21:29.476Z,4.72
2023-04-14T06:23:56.531Z,5.03
2023-04-14T06:26:23.567Z,4.82
2023-04-14T06:28:50.652Z,4.85
2023-04-14T06:31:17.545Z,4.65
2023-04-14T06:33:47.508Z,4.82
2023-04-14T06:36:17.085Z,4.50
2023-04-14T06:38:44.100Z,4.60
2023-04-14T06:41:10.860Z,4.00
2023-04-14T06:43:38.230Z,4.57
2023-04-14T06:46:06.103Z,4.20
2023-04-14T06:48:33.330Z,4.63
2023-04-14T06:51:00.743Z,6.28
2023-04-14T06:53:27.680Z,8.10
2023-04-14T06:56:00.821Z,4.07
2023-04-14T06:58:31.048Z,4.30
2023-04-14T07:00:59.380Z,3.83
2023-04-14T07:03:27.673Z,4.25
2023-04-14T07:05:54.809Z,3.83
2023-04-14T07:08:22.063Z,4.00
2023-04-14T07:10:50.115Z,3.53
2023-04-14T07:13:17.091Z,3.85
2023-04-14T07:15:47.773Z,3.85
2023-04-14T07:18:15.380Z,4.65
2023-04-14T07:20:42.574Z,3.95
2023-04-14T07:23:09.614Z,4.00
2023-04-14T07:25:36.938Z,4.20
2023-04-14T07:28:05.169Z,4.13
2023-04-14T07:30:32.486Z,3.70
2023-04-14T07:33:01.705Z,4.25
2023-04-14T07:35:29.400Z,4.30
2023-04-14T07:37:56.220Z,3.50
2023-04-14T07:40:23.267Z,4.00
2023-04-14T07:42:50.028Z,4.07
2023-04-14T07:45:17.529Z,3.83
2023-04-14T07:47:44.909Z,4.90
2023-04-14T07:50:12.270Z,3.43
2023-04-14T07:52:41.711Z,3.37
2023-04-14T07:55:08.769Z,3.10
2023-04-14T07:57:36.298Z,3.17
2023-04-14T08:00:04.367Z,3.83
2023-04-14T08:02:32.021Z,3.47
2023-04-14T08:04:58.881Z,3.40
2023-04-14T08:07:28.644Z,3.50
2023-04-14T08:09:55.632Z,3.27
2023-04-14T08:12:22.766Z,3.83
2023-04-14T08:14:49.797Z,3.43
2023-04-14T08:17:17.244Z,3.50
2023-04-14T08:19:44.321Z,4.33
2023-04-14T08:22:11.013Z,4.40
2023-04-14T08:24:38.062Z,4.83
2023-04-14T08:27:04.944Z,4.10
2023-04-14T08:29:31.978Z,3.97
2023-04-14T08:31:59.370Z,4.43
2023-04-14T08:34:28.655Z,4.10
2023-04-14T08:36:56.515Z,4.10
2023-04-14T08:39:23.789Z,4.00
2023-04-14T08:41:53.972Z,4.20
2023-04-14T08:44:22.097Z,4.57
2023-04-14T08:46:55.195Z,4.10
2023-04-14T08:49:51.421Z,3.87
2023-04-14T08:52:23.946Z,4.00
2023-04-14T08:54:51.392Z,4.37
2023-04-14T08:57:20.544Z,3.90
2023-04-14T08:59:48.256Z,4.27
2023-04-14T09:02:16.192Z,4.20
2023-04-14T09:04:43.636Z,3.97
2023-04-14T09:07:12.801Z,4.67
2023-04-14T09:09:39.912Z,4.33
2023-04-14T09:12:08.537Z,4.40
2023-04-14T09:14:37.387Z,4.63
2023-04-14T09:17:04.821Z,4.43
2023-04-14T09:19:33.157Z,4.50
2023-04-14T09:22:00.555Z,4.60
2023-04-14T09:24:34.570Z,4.50
2023-04-14T09:27:05.693Z,5.10
2023-04-14T09:29:33.563Z,4.50
2023-04-14T09:32:00.901Z,4.77
2023-04-14T09:34:28.366Z,5.30
2023-04-14T09:37:09.669Z,5.07
2023-04-14T09:39:47.790Z,4.57
2023-04-14T09:42:14.637Z,4.77
2023-04-14T09:45:05.208Z,4.47
2023-04-14T09:47:32.398Z,4.33
2023-04-14T09:50:06.504Z,3.87
2023-04-14T09:52:39.056Z,3.90
2023-04-14T09:55:08.781Z,3.50
2023-04-14T09:57:38.661Z,3.53
2023-04-14T10:00:20.834Z,3.77
2023-04-14T10:02:55.772Z,3.50
2023-04-14T10:05:33.012Z,3.63
2023-04-14T10:08:05.811Z,3.37
2023-04-14T10:10:32.897Z,3.50
2023-04-14T10:13:03.467Z,3.23
2023-04-14T10:15:31.386Z,3.43
2023-04-14T10:17:58.783Z,3.80
2023-04-14T10:20:26.981Z,4.17
2023-04-14T10:22:56.520Z,4.13
2023-04-14T10:25:25.123Z,4.43
2023-04-14T10:27:52.618Z,4.77
2023-04-14T10:30:19.887Z,4.15
2023-04-14T10:32:48.155Z,4.25
2023-04-14T10:35:18.465Z,3.83
2023-04-14T10:37:55.364Z,3.92
2023-04-14T10:40:23.273Z,3.90
2023-04-14T10:42:57.710Z,4.10
2023-04-14T10:45:24.821Z,4.20
2023-04-14T10:47:51.907Z,3.85
2023-04-14T10:50:24.325Z,3.80
2023-04-14T10:52:56.135Z,4.03
2023-04-14T10:55:28.145Z,4.03
2023-04-14T10:58:09.370Z,4.03
2023-04-14T11:00:39.647Z,4.25
2023-04-14T11:03:11.119Z,3.05
2023-04-14T11:05:44.251Z,3.67
2023-04-14T11:08:16.425Z,3.60
2023-04-14T11:10:51.279Z,3.42
2023-04-14T11:13:19.402Z,3.38
2023-04-14T11:16:01.564Z,3.08
2023-04-14T11:18:37.913Z,3.30
2023-04-14T11:21:10.857Z,2.80
2023-04-14T11:23:41.217Z,3.13
2023-04-14T11:26:12.734Z,2.90
2023-04-14T11:28:42.777Z,2.95
2023-04-14T11:31:12.779Z,2.83
2023-04-14T11:33:45.082Z,3.00
2023-04-14T11:36:13.060Z,2.60
2023-04-14T11:38:46.292Z,3.10
2023-04-14T11:41:19.208Z,2.90
2023-04-14T11:43:49.546Z,2.60
2023-04-14T11:46:20.674Z,2.30
2023-04-14T11:48:47.753Z,3.20
2023-04-14T11:51:15.481Z,2.60
2023-04-14T11:53:43.254Z,2.73
2023-04-14T11:56:14.436Z,2.93
2023-04-14T11:58:41.639Z,3.10
2023-04-14T12:01:16.240Z,2.83
2023-04-14T12:03:45.589Z,2.93
2023-04-14T12:06:13.089Z,2.63
2023-04-14T12:08:40.109Z,4.27
2023-04-14T12:11:15.196Z,3.90
2023-04-14T12:13:43.778Z,4.20
2023-04-14T12:16:11.969Z,3.63
2023-04-14T12:18:39.758Z,3.83
2023-04-14T12:21:09.714Z,3.50
2023-04-14T12:23:40.221Z,4.10
2023-04-14T12:26:14.390Z,3.90
2023-04-14T12:28:42.360Z,3.47
2023-04-14T12:31:10.073Z,3.70
2023-04-14T12:33:40.059Z,3.60
2023-04-14T12:36:13.377Z,3.50
2023-04-14T12:38:40.366Z,3.50
2023-04-14T12:41:07.376Z,3.20
2023-04-14T12:43:38.826Z,3.07
2023-04-14T12:46:07.875Z,3.40
2023-04-14T12:48:58.658Z,2.83
2023-04-14T12:51:25.936Z,3.07
2023-04-14T12:54:07.385Z,3.50
2023-04-14T12:56:34.452Z,3.17
2023-04-14T12:59:04.540Z,2.93
2023-04-14T13:01:31.678Z,3.13
2023-04-14T13:03:58.649Z,2.93
2023-04-14T13:06:26.131Z,2.90
2023-04-14T13:08:54.324Z,3.77
2023-04-14T13:11:23.474Z,3.07
2023-04-14T13:13:53.839Z,2.87
2023-04-14T13:16:21.542Z,2.70
2023-04-14T13:18:49.389Z,2.80
2023-04-14T13:21:16.848Z,2.60
2023-04-14T13:23:44.208Z,3.40
2023-04-14T13:26:12.137Z,2.83
2023-04-14T13:28:39.548Z,2.80
2023-04-14T13:31:06.967Z,2.80
2023-04-14T13:33:34.124Z,2.97
2023-04-14T13:36:04.456Z,3.10
2023-04-14T13:38:32.043Z,2.60
2023-04-14T13:40:59.136Z,2.93
2023-04-14T13:43:26.476Z,2.70
2023-04-14T13:45:56.966Z,2.70
2023-04-14T13:48:24.374Z,2.33
2023-04-14T13:50:51.905Z,2.23
2023-04-14T13:53:18.697Z,2.60
2023-04-14T13:55:46.317Z,2.20
2023-04-14T13:58:13.062Z,2.57
2023-04-14T14:00:40.587Z,2.57
2023-04-14T14:03:07.667Z,2.53
2023-04-14T14:05:34.574Z,2.87
2023-04-14T14:08:01.361Z,2.50
2023-04-14T14:10:28.929Z,2.57
2023-04-14T14:12:56.059Z,2.50
2023-04-14T14:15:23.628Z,2.37
2023-04-14T14:17:53.441Z,2.23
2023-04-14T14:20:20.422Z,2.30
2023-04-14T14:22:47.903Z,2.20
2023-04-14T14:25:20.587Z,2.20
2023-04-14T14:27:50.448Z,1.73
2023-04-14T14:30:17.410Z,2.37
2023-04-14T14:32:44.587Z,1.90
2023-04-14T14:35:11.734Z,1.90
2023-04-14T14:37:38.953Z,2.10
2023-04-14T14:40:06.538Z,2.40
2023-04-14T14:42:33.970Z,2.63
2023-04-14T14:45:01.683Z,2.13
2023-04-14T14:47:29.228Z,2.00
2023-04-14T14:50:02.691Z,1.87
2023-04-14T14:52:32.287Z,2.30
2023-04-14T14:54:59.266Z,2.00
2023-04-14T14:57:38.005Z,2.00
2023-04-14T15:00:08.057Z,2.00
2023-04-14T15:02:35.449Z,2.20
2023-04-14T15:05:02.809Z,1.97
2023-04-14T15:07:29.685Z,2.30
2023-04-14T15:09:56.692Z,2.00
2023-04-14T15:12:23.732Z,1.43
2023-04-14T15:14:50.963Z,2.50
2023-04-14T15:17:18.437Z,2.20
2023-04-14T15:19:45.467Z,1.90
2023-04-14T15:22:12.288Z,2.00
2023-04-14T15:24:39.628Z,2.20
2023-04-14T15:27:06.706Z,2.37
2023-04-14T15:29:33.841Z,2.17
2023-04-14T15:32:01.427Z,2.07
2023-04-14T15:34:28.424Z,1.83
2023-04-14T15:36:55.422Z,2.13
2023-04-14T15:39:22.517Z,1.97
2023-04-14T15:41:50.448Z,2.00
2023-04-14T15:44:17.681Z,1.77
2023-04-14T15:46:45.434Z,2.00
2023-04-14T15:49:12.521Z,2.00
2023-04-14T15:51:39.286Z,1.73
2023-04-14T15:54:06.336Z,1.97
2023-04-14T15:56:33.135Z,1.60
2023-04-14T15:58:59.865Z,1.90
2023-04-14T16:01:27.607Z,1.83
2023-04-14T16:03:54.936Z,1.87
2023-04-14T16:06:25.165Z,1.80
2023-04-14T16:08:52.766Z,1.50
2023-04-14T16:11:19.774Z,2.23
2023-04-14T16:13:47.504Z,2.33
2023-04-14T16:16:16.249Z,1.83
2023-04-14T16:18:43.452Z,1.67
2023-04-14T16:21:10.878Z,1.83
2023-04-14T16:23:38.033Z,1.70
2023-04-14T16:26:08.449Z,1.83
2023-04-14T16:28:35.760Z,1.77
2023-04-14T16:31:02.926Z,1.90
2023-04-14T16:33:31.635Z,1.73
2023-04-14T16:36:07.560Z,1.63
2023-04-14T16:38:36.779Z,1.90
2023-04-14T16:41:07.469Z,1.90
2023-04-14T16:43:34.468Z,1.67
2023-04-14T16:46:07.077Z,1.73
2023-04-14T16:48:37.623Z,1.43
2023-04-14T16:51:08.699Z,1.80
2023-04-14T16:53:36.895Z,1.70
2023-04-14T16:56:08.731Z,1.70
2023-04-14T16:58:36.983Z,1.80
2023-04-14T17:01:04.913Z,2.03
2023-04-14T17:03:32.450Z,1.67
2023-04-14T17:05:59.310Z,1.70
2023-04-14T17:08:26.722Z,1.53
2023-04-14T17:10:54.189Z,2.20
2023-04-14T17:13:21.532Z,1.87
2023-04-14T17:15:58.766Z,1.97
2023-04-14T17:18:35.212Z,2.03
2023-04-14T17:21:02.180Z,1.70
2023-04-14T17:23:29.019Z,1.80
2023-04-14T17:25:57.245Z,1.83
2023-04-14T17:28:24.379Z,1.93
2023-04-14T17:30:51.316Z,1.70
2023-04-14T17:33:20.176Z,1.90
2023-04-14T17:35:47.115Z,1.70
2023-04-14T17:38:14.006Z,1.90
2023-04-14T17:40:40.925Z,1.80
2023-04-14T17:43:08.043Z,1.60
2023-04-14T17:45:35.409Z,1.87
2023-04-14T17:48:02.471Z,2.20
2023-04-14T17:50:29.875Z,2.10
2023-04-14T17:52:58.027Z,2.80
2023-04-14T17:55:25.130Z,2.97
2023-04-14T17:57:52.842Z,3.60
2023-04-14T18:00:20.156Z,6.97
2023-04-14T18:02:47.629Z,3.97
2023-04-14T18:05:15.380Z,3.43
2023-04-14T18:07:42.349Z,3.33
2023-04-14T18:10:09.747Z,3.43
2023-04-14T18:12:36.790Z,3.53
2023-04-14T18:15:05.071Z,3.70
2023-04-14T18:17:32.438Z,3.87
2023-04-14T18:19:59.420Z,3.33
2023-04-14T18:22:28.847Z,3.60
2023-04-14T18:24:55.818Z,3.60
2023-04-14T18:29:54.114Z,4.03
2023-04-14T18:32:22.796Z,4.57
2023-04-14T18:34:49.576Z,4.07
2023-04-14T18:37:17.035Z,4.23
2023-04-14T18:39:45.046Z,4.60
2023-04-14T18:42:12.075Z,5.30
2023-04-14T18:44:38.829Z,4.60
2023-04-14T18:47:05.999Z,4.90
2023-04-14T18:49:32.861Z,4.10
2023-04-14T18:51:59.863Z,4.03
2023-04-14T18:54:27.157Z,4.00
2023-04-14T18:56:53.968Z,4.30
2023-04-14T18:59:21.545Z,4.33
2023-04-14T19:01:48.628Z,4.93
2023-04-14T19:04:15.678Z,5.00
2023-04-14T19:06:42.888Z,4.73
2023-04-14T19:09:09.772Z,5.00
2023-04-14T19:11:36.955Z,4.77
2023-04-14T19:14:04.735Z,5.80
2023-04-14T19:16:33.055Z,5.53
2023-04-14T19:19:01.424Z,5.57
2023-04-14T19:21:28.709Z,7.20
2023-04-14T19:23:57.127Z,6.13
2023-04-14T19:26:24.465Z,5.20
2023-04-14T19:28:52.974Z,4.33
2023-04-14T19:31:21.768Z,5.10
2023-04-14T19:33:49.373Z,4.90
2023-04-14T19:36:17.282Z,5.33
2023-04-14T19:38:44.644Z,4.67
2023-04-14T19:41:12.141Z,4.50
2023-04-14T19:43:39.829Z,4.60
2023-04-14T19:46:08.312Z,4.43
2023-04-14T19:48:35.371Z,4.83
2023-04-14T19:51:02.609Z,4.47
2023-04-14T19:53:29.919Z,4.67
2023-04-14T19:55:58.333Z,4.50
2023-04-14T19:58:26.899Z,4.50
2023-04-14T20:00:57.510Z,4.67
2023-04-14T20:03:25.627Z,4.60
2023-04-14T20:05:57.295Z,4.73
2023-04-14T20:08:25.602Z,4.23
2023-04-14T20:10:54.526Z,4.53
2023-04-14T20:13:23.753Z,4.13
2023-04-14T20:15:55.316Z,4.00
2023-04-14T20:18:26.524Z,4.40
2023-04-14T20:20:55.465Z,4.23
2023-04-14T20:23:22.992Z,4.27
2023-04-14T20:25:56.065Z,4.43
2023-04-14T20:28:27.029Z,4.50
2023-04-14T20:30:54.577Z,4.73
2023-04-14T20:33:28.749Z,5.70
2023-04-14T20:36:03.714Z,5.50
2023-04-14T20:38:37.722Z,5.23
2023-04-14T20:41:05.815Z,5.03
2023-04-14T20:43:34.315Z,5.47
2023-04-14T20:46:02.772Z,5.70
2023-04-14T20:48:30.721Z,6.07
2023-04-14T20:50:57.945Z,5.20
2023-04-14T20:53:27.301Z,5.00
2023-04-14T20:55:55.014Z,5.50
2023-04-14T20:58:21.991Z,5.57
2023-04-14T21:00:49.881Z,5.13
2023-04-14T21:03:17.249Z,4.90
2023-04-14T21:05:44.442Z,4.80
2023-04-14T21:08:12.831Z,5.07
2023-04-14T21:11:02.153Z,5.60
2023-04-14T21:15:24.841Z,6.30
2023-04-14T21:16:15.765Z,4.87
2023-04-14T21:18:42.615Z,5.27
2023-04-14T21:21:11.447Z,5.53
2023-04-14T21:23:38.357Z,5.50
2023-04-14T21:26:05.375Z,5.33
2023-04-14T21:28:32.660Z,5.10
2023-04-14T21:31:01.637Z,5.73
2023-04-14T21:33:29.026Z,5.83
2023-04-14T21:35:56.321Z,5.87
2023-04-14T21:38:24.038Z,5.40
2023-04-14T21:40:51.757Z,5.63
2023-04-14T21:43:18.954Z,5.50
2023-04-14T21:45:45.812Z,5.20
2023-04-14T21:48:12.949Z,5.10
2023-04-14T21:50:39.784Z,5.27
2023-04-14T21:53:06.755Z,4.90
2023-04-14T21:55:33.833Z,5.43
2023-04-14T21:58:01.531Z,5.40
2023-04-14T22:00:28.511Z,5.93
2023-04-14T22:02:55.900Z,5.53
2023-04-14T22:05:23.619Z,5.97
2023-04-14T22:07:50.489Z,6.17
2023-04-14T22:10:17.340Z,6.30
2023-04-14T22:12:48.993Z,6.57
2023-04-14T22:15:22.125Z,6.60
2023-04-14T22:17:49.409Z,6.40
2023-04-14T22:20:16.535Z,6.43
2023-04-14T22:22:43.476Z,6.30
2023-04-14T22:25:11.565Z,5.60
2023-04-14T22:27:38.398Z,5.80
2023-04-14T22:30:05.895Z,6.30
2023-04-14T22:32:32.730Z,6.00
2023-04-14T22:34:59.713Z,6.00
2023-04-14T22:37:26.707Z,5.80
2023-04-14T22:39:53.488Z,6.17
2023-04-14T22:42:20.398Z,5.87
2023-04-14T22:44:49.781Z,6.13
2023-04-14T22:47:16.846Z,5.90
2023-04-14T22:49:43.692Z,6.53
2023-04-14T22:52:10.625Z,6.33
2023-04-14T22:54:38.079Z,6.80
2023-04-14T22:57:05.164Z,6.43
2023-04-14T22:59:32.134Z,6.97
2023-04-14T23:02:02.810Z,6.63
2023-04-14T23:04:31.495Z,6.73
2023-04-14T23:06:58.442Z,7.27
2023-04-14T23:09:25.526Z,7.40
2023-04-14T23:11:52.628Z,7.20
2023-04-14T23:14:19.842Z,7.90
2023-04-14T23:16:47.226Z,7.70
2023-04-14T23:19:14.073Z,7.93
2023-04-14T23:21:41.252Z,7.63
2023-04-14T23:24:09.082Z,7.43
2023-04-14T23:26:36.274Z,7.67
2023-04-14T23:29:03.190Z,7.47
2023-04-14T23:31:30.956Z,7.53
2023-04-14T23:33:57.901Z,7.73
2023-04-14T23:36:25.388Z,8.33
2023-04-14T23:38:55.237Z,7.40
2023-04-14T23:41:21.967Z,7.30
2023-04-14T23:43:49.632Z,8.03
2023-04-14T23:46:17.183Z,7.37
2023-04-14T23:48:49.670Z,7.37
2023-04-14T23:51:22.204Z,6.97
2023-04-14T23:53:49.471Z,7.60
2023-04-14T23:56:19.315Z,7.60
2023-04-14T23:58:48.224Z,6.80
